Aérodrome :
LOGIN :

S'inscrire | Disclaimer

   EN    FR    IT 

 










Légende :    VFR   VFR Marginal   IFR   IFR Intensif   IFR Très Intensif
Visi : 
Plafond : 
>= 8 km
>= 3000ft
5 à 8 km
1000 à 3000 ft
1500m à 5 km
500 à 1000 ft
800 à 1500m
200 à 500 ft
< 800m
< 200 ft
Symboles :   Orages  Brouillard  Fortes neiges  Fortes précipitations  Vent > 20 kt
SIGMETs :   Divers  Orages  Givrage  Turbulence  Onde Orograph.  Cendres Volcan.






- Altitude de l'aérodrome : 135 ft
- Code IATA : EDI


EGPH - Edinburgh

DERNIER METAR :
  • 171420Z 24003KT 9999 FEW033 06/03 Q1016

METARs EXPIRÉS :
  • 171350Z 23003KT CAVOK 06/03 Q1016
  • 171320Z 23003KT CAVOK 04/03 Q1016
  • 171250Z 25004KT CAVOK 04/03 Q1016
  • 171220Z 25004KT CAVOK 04/03 Q1016
  • 171150Z 24004KT CAVOK 03/03 Q1016

TAF TAF EGPH
Valide du 17 à 12h jusqu'au 18 à 12h UTC


171056Z 1712/1812 28005KT 9999 SCT020
PROB30
TEMPO 1712/1714 7000 -RA BKN014
PROB30
TEMPO 1714/1812 6000
ATIS : +44 131 339 2823



MET'MAP, la Météo Aéronautique d'un coup d'oeil ! - Copyright ORBIFLY Décembre 2007 - Disclaimer

ORBIFLY MET'MAP TEAM :

Programmation & Développement : Alexandra Zaïnal
Conception & Développement : Baudouin d'Aumeries
Co-Programmation & Développement : Marc-Olivier Méhu
Soutien technique & logistique : Manuel Goepfert

Contact : metmap@orbifly.com




SOURCES & CREDITS :

   NOAA